Lietadlo (typ, imatrikulačný znak): _________________/__________________
Meno pilota (skontroloval): ___________________________________
Podpis pilota (skontroloval): ___________________________________

Predpoveď na dnes

Oblačno až zamračené, v Nitrianskom a Banskobystrickom kraji prevažne polooblačno. Oojedinele slabé zrážky, vo vysokých polohách snehové. Neskôr väčšinou zmenšovanie oblačnosti. Najvyššia denná teplota 11 až 16, v Žilinskom kraji a Prešovskom kraji miestami 6 až 11 st. Teplota na horách vo výške 1500 m okolo 2 st. Prevažne severný vietor 3 až 8, ojedinele do 12 m/s (10 až 30, 45 km/h), v nárazoch miestami okolo 15 m/s (55 km/h). K večeru bude vietor čiastočne slabnúť. Predpokladané množstvo zrážok: do 1 mm / vo vysokých polohách poprašok

SHMÚ, OMPaV, CS 21.10.2018 11:55 LSEČ

METAR - Letisková meteo správa

Letisková meteorologická správa METAR

Meteorologické informácie z ďalších profesionálnych meteorologických staníc SHMÚ zobrazené v tvare zodpovedajúcom pravidlám kódovania správ METAR sú uvedené v položke „METSYN Informácie o správe METAR

21.10.2018 - 10:00 UTC

METAR LZIB 211000Z 34017KT 9999 FEW037 BKN041 11/03 Q1025 NOSIG=
 METAR LZKZ 211000Z 36019KT 9999 FEW016 SCT044 10/05 Q1022 NOSIG=
 METAR LZPP 211000Z 01014KT 9999 BKN033 12/04 Q1025=
 METAR LZSL 211000Z 36009KT 330V040 CAVOK 14/02 Q1023=
 METAR LZTT 211000Z 05014KT 9999 FEW016 BKN023 06/03 Q1024 NOSIG=
 METAR LZZI 211000Z 05008KT 9999 BKN024 09/04 Q1026=
 

21.10.2018 - 09:30 UTC

METAR LZIB 210930Z 34016KT 9999 FEW032 BKN036 11/03 Q1025 NOSIG=
 METAR LZKZ 210930Z 01022KT 9999 FEW016 SCT050 09/05 Q1022 NOSIG=
 METAR LZPP 210930Z 01016KT 9999 BKN030 11/04 Q1025=
 METAR LZSL 210930Z 02009KT CAVOK 13/02 Q1023=
 METAR LZTT 210930Z 04013KT 9999 BKN020 06/03 Q1024 NOSIG=
 METAR LZZI 210930Z 04005KT 350V070 9999 BKN022 08/04 Q1026=
 

21.10.2018 - 10:00 UTC

METAR LZMC 211000Z 36010KT 9999 SCT025 OVC042 09/04
 Q1027=
 METAR LZPW 211000Z 35010KT 9999 BKN015 OVC033 08/05
 Q1024=
 

TAF - Letisková predpoveď

21.10.2018 - 08:00 UTC

TAF LZSL 210800Z 2109/2118 02012KT CAVOK
     BECMG 2110/2112 9999 FEW040 SCT055
     BECMG 2116/2118 35008KT CAVOK=
 TAF LZPP 210800Z 2109/2118 34013KT 9999 SCT034
     TEMPO 2109/2115 36015G27KT
     BECMG 2112/2114 CAVOK=
 TAF LZZI 210800Z 2109/2118 05008KT 9999 BKN026
     TEMPO 2109/2115 04016KT
     BECMG 2112/2114 9999 SCT025
     BECMG 2115/2117 CAVOK=
 

21.10.2018 - 05:00 UTC

TAF LZSL 210500Z 2106/2115 36008KT CAVOK
     TEMPO 2106/2109 01014KT
     BECMG 2108/2110 9999 FEW035 SCT060=
 TAF LZPP 210500Z 2106/2115 34012KT 9999 FEW035 SCT080
     TEMPO 2109/2115 36015G25KT
     TEMPO 2112/2114 CAVOK=
 TAF LZZI 210500Z 2106/2115 06008KT 9999 BKN016
     TEMPO 2106/2109 -RA BKN012 OVC040
     TEMPO 2107/2115 04016KT
     BECMG 2113/2115 SCT025=
 

21.10.2018 - 05:00 UTC

TAF LZIB 210500Z 2106/2206 32010KT 9999 FEW040
     BECMG 2108/2110 SCT045
     TEMPO 2108/2115 36018KT -SHRA FEW035TCU BKN045
     BECMG 2122/2200 32005KT CAVOK=
 TAF LZKZ 210500Z 2106/2206 02018KT 9999 FEW035 BKN055
     TEMPO 2106/2109 RA SCT020 OVC050
     TEMPO 2106/2120 01020G30KT
     BECMG 2119/2121 SCT045
     BECMG 2204/2206 01008KT CAVOK=
 TAF LZTT 210500Z 2106/2206 27004KT 9999 SCT050
     BECMG 2107/2109 06012KT FEW020 BKN040
     TEMPO 2109/2116 -RA
     BECMG 2119/2121 21004KT
     PROB40 TEMPO 2202/2206 4000 BCFG SCT002=
 

21.10.2018 - 02:00 UTC

TAF LZSL 210200Z 2103/2112 01008KT 9999 FEW040
     PROB40 TEMPO 2103/2105 36020KT
     BECMG 2106/2108 FEW025 SCT050=
 TAF LZZI 210200Z 2103/2112 06008KT 9999 BKN025 OVC045
     TEMPO 2103/2109 -RA
     PROB30 TEMPO 2103/2107 RA BKN012 OVC025
     TEMPO 2107/2112 04016KT=